createdAt,value
2023-08-07T00:01:21.615Z,26.79
2023-08-07T00:03:24.741Z,26.75
2023-08-07T00:05:26.944Z,26.73
2023-08-07T00:07:28.866Z,26.71
2023-08-07T00:09:30.545Z,26.69
2023-08-07T00:11:32.628Z,26.67
2023-08-07T00:13:34.361Z,26.65
2023-08-07T00:15:39.139Z,26.62
2023-08-07T00:17:41.032Z,26.61
2023-08-07T00:19:43.010Z,26.62
2023-08-07T00:21:47.046Z,26.61
2023-08-07T00:23:50.960Z,26.57
2023-08-07T00:25:52.891Z,26.54
2023-08-07T00:27:54.776Z,26.49
2023-08-07T00:29:57.658Z,26.46
2023-08-07T00:31:59.919Z,26.46
2023-08-07T00:34:01.728Z,26.43
2023-08-07T00:36:04.321Z,26.43
2023-08-07T00:38:06.199Z,26.44
2023-08-07T00:40:08.806Z,26.42
2023-08-07T00:42:10.480Z,26.39
2023-08-07T00:44:12.248Z,26.39
2023-08-07T00:46:14.335Z,26.37
2023-08-07T00:48:18.774Z,26.34
2023-08-07T00:50:22.766Z,26.31
2023-08-07T00:52:27.320Z,26.22
2023-08-07T00:54:29.241Z,26.20
2023-08-07T00:56:32.299Z,26.18
2023-08-07T00:58:35.179Z,26.17
2023-08-07T01:00:37.259Z,26.15
2023-08-07T01:02:39.313Z,26.14
2023-08-07T01:04:41.194Z,26.15
2023-08-07T01:06:43.486Z,26.15
2023-08-07T01:08:46.890Z,26.14
2023-08-07T01:11:13.240Z,26.15
2023-08-07T01:13:27.319Z,26.16
2023-08-07T01:15:33.116Z,26.15
2023-08-07T01:17:36.079Z,26.13
2023-08-07T01:19:39.346Z,26.09
2023-08-07T01:21:42.026Z,26.05
2023-08-07T01:23:45.271Z,26.05
2023-08-07T01:25:47.469Z,26.04
2023-08-07T01:28:31.774Z,26.06
2023-08-07T01:30:47.695Z,26.06
2023-08-07T01:33:08.731Z,26.01
2023-08-07T01:35:13.639Z,25.99
2023-08-07T01:37:16.711Z,25.94
2023-08-07T01:39:21.098Z,25.92
2023-08-07T01:41:22.863Z,25.89
2023-08-07T01:43:25.169Z,25.84
2023-08-07T01:45:28.838Z,25.80
2023-08-07T01:47:30.643Z,25.81
2023-08-07T01:49:32.411Z,25.81
2023-08-07T01:51:34.430Z,25.82
2023-08-07T01:53:36.223Z,25.79
2023-08-07T01:55:37.864Z,25.78
2023-08-07T01:57:39.738Z,25.75
2023-08-07T01:59:41.423Z,25.77
2023-08-07T02:01:43.180Z,25.77
2023-08-07T02:03:44.914Z,25.78
2023-08-07T02:05:47.700Z,25.77
2023-08-07T02:07:49.440Z,25.75
2023-08-07T02:09:51.202Z,25.77
2023-08-07T02:11:52.900Z,25.78
2023-08-07T02:13:54.848Z,25.76
2023-08-07T02:15:56.534Z,25.74
2023-08-07T02:17:58.473Z,25.76
2023-08-07T02:20:00.241Z,25.73
2023-08-07T02:22:02.863Z,25.73
2023-08-07T02:24:05.123Z,25.75
2023-08-07T02:26:06.786Z,25.77
2023-08-07T02:28:08.763Z,25.80
2023-08-07T02:30:11.266Z,25.79
2023-08-07T02:32:13.086Z,25.81
2023-08-07T02:34:14.756Z,25.80
2023-08-07T02:36:16.711Z,25.80
2023-08-07T02:38:18.402Z,25.81
2023-08-07T02:40:21.035Z,25.83
2023-08-07T02:42:22.704Z,25.81
2023-08-07T02:44:24.650Z,25.79
2023-08-07T02:46:26.862Z,25.85
2023-08-07T02:48:28.500Z,25.87
2023-08-07T02:50:33.761Z,25.88
2023-08-07T02:52:35.671Z,25.93
2023-08-07T02:54:37.524Z,25.90
2023-08-07T02:56:39.160Z,25.88
2023-08-07T02:58:40.845Z,25.85
2023-08-07T03:00:44.235Z,25.82
2023-08-07T03:02:46.179Z,25.80
2023-08-07T03:04:48.213Z,25.79
2023-08-07T03:06:50.160Z,25.78
2023-08-07T03:08:52.856Z,25.76
2023-08-07T03:10:56.969Z,25.75
2023-08-07T03:12:59.561Z,25.73
2023-08-07T03:15:02.033Z,25.65
2023-08-07T03:17:04.052Z,25.61
2023-08-07T03:19:06.072Z,25.64
2023-08-07T03:21:08.415Z,25.64
2023-08-07T03:23:11.292Z,25.65
2023-08-07T03:25:13.028Z,25.64
2023-08-07T03:27:15.685Z,25.63
2023-08-07T03:29:18.092Z,25.60
2023-08-07T03:31:20.466Z,25.56
2023-08-07T03:33:22.332Z,25.56
2023-08-07T03:35:24.118Z,25.57
2023-08-07T03:37:25.778Z,25.57
2023-08-07T03:39:27.547Z,25.52
2023-08-07T03:41:31.390Z,25.46
2023-08-07T03:43:33.216Z,25.39
2023-08-07T03:45:35.292Z,25.37
2023-08-07T03:47:37.035Z,25.37
2023-08-07T03:49:38.986Z,25.37
2023-08-07T03:51:40.835Z,25.43
2023-08-07T03:53:43.683Z,25.46
2023-08-07T03:55:51.431Z,25.47
2023-08-07T03:57:53.257Z,25.46
2023-08-07T03:59:55.637Z,25.45
2023-08-07T04:01:57.901Z,25.45
2023-08-07T04:03:59.571Z,25.47
2023-08-07T04:06:06.842Z,25.51
2023-08-07T04:08:08.863Z,25.57
2023-08-07T04:10:10.767Z,25.64
2023-08-07T04:12:12.440Z,25.74
2023-08-07T04:14:15.412Z,25.96
2023-08-07T04:16:18.267Z,26.29
2023-08-07T04:18:20.669Z,26.58
2023-08-07T04:20:22.519Z,26.78
2023-08-07T04:22:25.820Z,26.80
2023-08-07T04:24:27.498Z,26.78
2023-08-07T04:26:29.196Z,26.91
2023-08-07T04:28:31.111Z,27.20
2023-08-07T04:30:32.788Z,27.68
2023-08-07T04:32:34.783Z,28.17
2023-08-07T04:34:36.662Z,28.31
2023-08-07T04:36:38.390Z,28.36
2023-08-07T04:38:40.125Z,28.38
2023-08-07T04:40:49.001Z,28.51
2023-08-07T04:42:51.664Z,28.70
2023-08-07T04:44:53.527Z,28.96
2023-08-07T04:46:55.502Z,28.99
2023-08-07T04:48:57.550Z,28.89
2023-08-07T04:50:59.562Z,28.71
2023-08-07T04:53:01.627Z,28.78
2023-08-07T04:55:03.282Z,28.75
2023-08-07T04:57:05.000Z,28.64
2023-08-07T04:59:06.655Z,28.47
2023-08-07T05:01:10.355Z,28.25
2023-08-07T05:03:12.503Z,28.06
2023-08-07T05:05:15.960Z,28.02
2023-08-07T05:07:17.710Z,28.08
2023-08-07T05:09:20.838Z,28.15
2023-08-07T05:11:22.587Z,28.37
2023-08-07T05:13:26.538Z,28.60
2023-08-07T05:15:29.694Z,28.83
2023-08-07T05:17:32.641Z,29.01
2023-08-07T05:19:34.375Z,28.88
2023-08-07T05:21:36.110Z,28.65
2023-08-07T05:23:39.910Z,28.38
2023-08-07T05:25:41.632Z,28.04
2023-08-07T05:27:44.370Z,27.74
2023-08-07T05:29:46.244Z,27.50
2023-08-07T05:31:50.220Z,27.33
2023-08-07T05:33:52.451Z,27.32
2023-08-07T05:35:54.175Z,27.42
2023-08-07T05:37:55.867Z,27.55
2023-08-07T05:39:57.856Z,27.72
2023-08-07T05:42:00.321Z,27.90
2023-08-07T05:44:02.019Z,28.09
2023-08-07T05:46:03.927Z,28.24
2023-08-07T05:48:08.135Z,28.26
2023-08-07T05:50:10.221Z,28.25
2023-08-07T05:52:11.881Z,28.07
2023-08-07T05:54:13.644Z,27.89
2023-08-07T05:56:15.612Z,27.78
2023-08-07T05:58:17.751Z,27.68
2023-08-07T06:00:20.914Z,27.51
2023-08-07T06:02:22.570Z,27.31
2023-08-07T06:04:24.732Z,27.16
2023-08-07T06:06:30.296Z,27.03
2023-08-07T06:08:32.228Z,26.94
2023-08-07T06:10:33.922Z,26.82
2023-08-07T06:12:36.053Z,26.71
2023-08-07T06:14:38.732Z,26.62
2023-08-07T06:16:40.422Z,26.60
2023-08-07T06:18:42.267Z,26.62
2023-08-07T06:20:44.198Z,26.68
2023-08-07T06:22:46.138Z,26.79
2023-08-07T06:24:48.199Z,26.92
2023-08-07T06:26:50.949Z,27.00
2023-08-07T06:28:53.043Z,27.02
2023-08-07T06:30:54.901Z,26.95
2023-08-07T06:32:56.585Z,27.00
2023-08-07T06:34:58.946Z,27.17
2023-08-07T06:37:00.620Z,27.37
2023-08-07T06:39:03.660Z,27.48
2023-08-07T06:41:05.657Z,27.56
2023-08-07T06:43:07.838Z,27.50
2023-08-07T06:45:10.253Z,27.54
2023-08-07T06:47:12.241Z,27.62
2023-08-07T06:49:14.314Z,27.66
2023-08-07T06:51:16.966Z,27.80
2023-08-07T06:53:19.324Z,27.90
2023-08-07T06:55:21.501Z,28.00
2023-08-07T06:57:23.532Z,27.91
2023-08-07T06:59:27.357Z,27.69
2023-08-07T07:01:29.334Z,27.36
2023-08-07T07:03:31.199Z,27.20
2023-08-07T07:05:34.168Z,27.16
2023-08-07T07:07:36.740Z,27.21
2023-08-07T07:09:38.496Z,27.25
2023-08-07T07:11:40.130Z,27.33
2023-08-07T07:13:42.741Z,27.35
2023-08-07T07:15:44.440Z,27.26
2023-08-07T07:17:46.288Z,27.09
2023-08-07T07:19:48.385Z,26.94
2023-08-07T07:21:51.683Z,26.83
2023-08-07T07:23:53.627Z,26.60
2023-08-07T07:25:55.783Z,26.61
2023-08-07T07:27:57.544Z,26.56
2023-08-07T07:29:59.412Z,26.49
2023-08-07T07:32:01.288Z,26.40
2023-08-07T07:34:03.337Z,26.28
2023-08-07T07:36:05.291Z,26.12
2023-08-07T07:38:08.389Z,25.96
2023-08-07T07:40:12.896Z,25.80
2023-08-07T07:42:14.535Z,25.72
2023-08-07T07:44:16.448Z,25.67
2023-08-07T07:46:19.585Z,25.65
2023-08-07T07:48:21.366Z,25.72
2023-08-07T07:50:23.660Z,25.91
2023-08-07T07:52:25.338Z,26.17
2023-08-07T07:54:27.300Z,26.36
2023-08-07T07:56:29.083Z,26.68
2023-08-07T07:58:31.381Z,26.93
2023-08-07T08:00:33.463Z,27.05
2023-08-07T08:02:35.258Z,27.05
2023-08-07T08:04:37.024Z,27.03
2023-08-07T08:06:39.944Z,27.08
2023-08-07T08:08:43.706Z,27.07
2023-08-07T08:10:49.314Z,27.06
2023-08-07T08:12:51.205Z,27.11
2023-08-07T08:14:56.237Z,27.17
2023-08-07T08:16:58.821Z,27.30
2023-08-07T08:19:00.905Z,27.43
2023-08-07T08:21:02.721Z,27.53
2023-08-07T08:23:05.920Z,27.59
2023-08-07T08:25:08.261Z,27.60
2023-08-07T08:27:10.013Z,27.63
2023-08-07T08:29:15.878Z,27.65
2023-08-07T08:31:17.907Z,27.66
2023-08-07T08:33:19.880Z,27.67
2023-08-07T08:35:22.384Z,27.66
2023-08-07T08:37:24.031Z,27.65
2023-08-07T08:39:25.902Z,27.65
2023-08-07T08:41:28.213Z,27.71
2023-08-07T08:43:33.635Z,27.80
2023-08-07T08:45:39.272Z,27.90
2023-08-07T08:47:42.724Z,27.99
2023-08-07T08:49:50.120Z,28.10
2023-08-07T08:51:52.288Z,28.20
2023-08-07T08:53:55.136Z,28.24
2023-08-07T08:55:56.900Z,28.31
2023-08-07T08:58:01.939Z,28.36
2023-08-07T09:00:19.299Z,28.42
2023-08-07T09:02:21.611Z,28.32
2023-08-07T09:04:23.352Z,28.17
2023-08-07T09:06:27.113Z,28.02
2023-08-07T09:08:32.667Z,27.85
2023-08-07T09:10:35.710Z,27.66
2023-08-07T09:13:01.431Z,27.49
2023-08-07T09:15:06.005Z,27.28
2023-08-07T09:17:08.239Z,27.22
2023-08-07T09:19:09.892Z,27.17
2023-08-07T09:21:11.869Z,27.14
2023-08-07T09:23:14.271Z,27.07
2023-08-07T09:25:16.178Z,27.04
2023-08-07T09:27:18.456Z,26.87
2023-08-07T09:29:22.380Z,26.57
2023-08-07T09:31:27.726Z,26.08
2023-08-07T09:33:31.502Z,25.44
2023-08-07T09:35:34.557Z,24.91
2023-08-07T09:37:38.337Z,24.51
2023-08-07T09:39:41.502Z,24.28
2023-08-07T09:41:43.286Z,24.11
2023-08-07T09:43:45.115Z,23.99
2023-08-07T09:45:46.984Z,23.95
2023-08-07T09:48:08.016Z,23.88
2023-08-07T09:50:18.019Z,23.88
2023-08-07T09:52:20.043Z,23.92
2023-08-07T09:54:21.865Z,23.99
2023-08-07T09:56:23.618Z,24.08
2023-08-07T09:58:25.663Z,24.15
2023-08-07T10:00:27.421Z,24.21
2023-08-07T10:02:30.215Z,24.24
2023-08-07T10:04:32.270Z,24.20
2023-08-07T10:06:35.181Z,24.22
2023-08-07T10:08:37.720Z,24.27
2023-08-07T10:10:40.305Z,24.29
2023-08-07T10:12:42.727Z,24.32
2023-08-07T10:14:46.229Z,24.42
2023-08-07T10:16:48.870Z,24.43
2023-08-07T10:18:50.608Z,24.41
2023-08-07T10:20:52.801Z,24.42
2023-08-07T10:23:01.025Z,24.51
2023-08-07T10:25:04.145Z,24.61
2023-08-07T10:27:08.000Z,24.67
2023-08-07T10:29:14.297Z,24.76
2023-08-07T10:31:16.390Z,24.86
2023-08-07T10:33:21.606Z,24.91
2023-08-07T10:35:33.807Z,24.93
2023-08-07T10:37:43.586Z,24.93
2023-08-07T10:40:05.767Z,24.94
2023-08-07T10:42:07.657Z,24.96
2023-08-07T10:44:26.312Z,25.01
2023-08-07T10:48:23.098Z,25.01
2023-08-07T10:50:35.791Z,25.02
2023-08-07T10:52:40.841Z,24.96
2023-08-07T10:54:47.677Z,24.91
2023-08-07T10:56:56.841Z,24.86
2023-08-07T10:58:59.238Z,24.85
2023-08-07T11:01:21.070Z,24.83
2023-08-07T11:03:29.283Z,24.79
2023-08-07T11:05:32.174Z,24.77
2023-08-07T11:07:34.869Z,24.79
2023-08-07T11:09:37.270Z,24.84
2023-08-07T11:11:47.388Z,24.90
2023-08-07T11:13:49.320Z,24.88
2023-08-07T11:15:51.230Z,24.80
2023-08-07T11:17:54.128Z,24.80
2023-08-07T11:19:57.448Z,24.72
2023-08-07T11:21:59.222Z,24.68
2023-08-07T11:24:02.364Z,24.72
2023-08-07T11:26:04.668Z,24.72
2023-08-07T11:28:06.433Z,24.72
2023-08-07T11:30:12.922Z,24.63
2023-08-07T11:32:15.354Z,24.59
2023-08-07T11:34:19.467Z,24.65
2023-08-07T11:36:22.392Z,24.75
2023-08-07T11:38:52.612Z,24.79
2023-08-07T11:40:56.985Z,24.85
2023-08-07T11:42:58.989Z,24.83
2023-08-07T11:45:00.748Z,24.71
2023-08-07T11:47:03.707Z,24.66
2023-08-07T11:49:06.016Z,24.59
2023-08-07T11:51:10.791Z,24.51
2023-08-07T11:53:14.076Z,24.46
2023-08-07T11:55:16.220Z,24.47
2023-08-07T11:57:19.335Z,24.56
2023-08-07T11:59:21.401Z,24.66
2023-08-07T12:01:24.120Z,24.79
2023-08-07T12:03:31.172Z,24.89
2023-08-07T12:05:42.128Z,24.97
2023-08-07T12:07:44.166Z,24.95
2023-08-07T12:09:46.343Z,24.97
2023-08-07T12:11:48.187Z,24.97
2023-08-07T12:13:51.131Z,24.90
2023-08-07T12:15:55.115Z,24.86
2023-08-07T12:18:03.181Z,24.84
2023-08-07T12:20:08.603Z,24.80
2023-08-07T12:22:12.274Z,24.75
2023-08-07T12:24:14.596Z,24.69
2023-08-07T12:26:17.605Z,24.61
2023-08-07T12:28:19.757Z,24.54
2023-08-07T12:30:21.840Z,24.49
2023-08-07T12:32:23.671Z,24.45
2023-08-07T12:36:30.542Z,24.38
2023-08-07T12:38:32.271Z,24.34
2023-08-07T12:40:38.079Z,24.28
2023-08-07T12:42:41.995Z,24.27
2023-08-07T12:44:44.755Z,24.27
2023-08-07T12:46:49.987Z,24.30
2023-08-07T12:48:51.806Z,24.31
2023-08-07T12:50:54.042Z,24.32
2023-08-07T12:52:57.097Z,24.33
2023-08-07T12:54:58.750Z,24.30
2023-08-07T12:57:00.368Z,24.34
2023-08-07T12:59:02.458Z,24.35
2023-08-07T13:01:05.858Z,24.33
2023-08-07T13:03:07.526Z,24.30
2023-08-07T13:05:10.568Z,24.25
2023-08-07T13:07:12.521Z,24.22
2023-08-07T13:09:15.383Z,24.21
2023-08-07T13:11:17.333Z,24.23
2023-08-07T13:13:19.083Z,24.21
2023-08-07T13:15:20.953Z,24.14
2023-08-07T13:17:23.646Z,24.03
2023-08-07T13:19:25.394Z,23.92
2023-08-07T13:21:27.128Z,23.85
2023-08-07T13:23:30.074Z,23.79
2023-08-07T13:25:31.870Z,23.68
2023-08-07T13:27:34.323Z,23.61
2023-08-07T13:29:36.852Z,23.54
2023-08-07T13:31:38.768Z,23.48
2023-08-07T13:33:40.626Z,23.42
2023-08-07T13:35:42.524Z,23.53
2023-08-07T13:37:44.340Z,23.45
2023-08-07T13:39:46.133Z,23.48
2023-08-07T13:41:48.519Z,23.46
2023-08-07T13:43:50.176Z,23.43
2023-08-07T13:45:54.838Z,23.37
2023-08-07T13:47:56.566Z,23.30
2023-08-07T13:49:59.404Z,23.22
2023-08-07T13:52:01.235Z,23.16
2023-08-07T13:54:02.869Z,23.10
2023-08-07T13:56:05.024Z,23.06
2023-08-07T13:58:07.103Z,23.06
2023-08-07T14:00:09.782Z,23.06
2023-08-07T14:02:11.709Z,23.03
2023-08-07T14:04:14.720Z,23.05
2023-08-07T14:06:18.025Z,23.05
2023-08-07T14:08:19.672Z,23.00
2023-08-07T14:10:21.620Z,22.94
2023-08-07T14:12:23.238Z,22.87
2023-08-07T14:14:25.144Z,22.79
2023-08-07T14:16:27.315Z,22.70
2023-08-07T14:18:29.123Z,22.64
2023-08-07T14:20:30.793Z,22.55
2023-08-07T14:22:33.380Z,22.44
2023-08-07T14:24:35.537Z,22.40
2023-08-07T14:26:37.389Z,22.37
2023-08-07T14:28:39.032Z,22.34
2023-08-07T14:30:41.393Z,22.33
2023-08-07T14:32:48.123Z,22.34
2023-08-07T14:34:50.456Z,22.34
2023-08-07T14:36:53.330Z,22.34
2023-08-07T14:38:56.519Z,22.36
2023-08-07T14:41:01.392Z,22.38
2023-08-07T14:43:03.541Z,22.34
2023-08-07T14:45:06.864Z,22.38
2023-08-07T14:47:08.968Z,22.38
2023-08-07T14:49:10.898Z,22.39
2023-08-07T14:51:12.915Z,22.42
2023-08-07T14:53:16.351Z,22.42
2023-08-07T14:55:19.284Z,22.41
2023-08-07T14:57:20.904Z,22.45
2023-08-07T14:59:22.652Z,22.51
2023-08-07T15:01:25.921Z,22.52
2023-08-07T15:03:27.727Z,22.53
2023-08-07T15:05:29.459Z,22.52
2023-08-07T15:07:31.238Z,22.52
2023-08-07T15:09:32.975Z,22.47
2023-08-07T15:11:34.805Z,22.49
2023-08-07T15:13:36.704Z,22.50
2023-08-07T15:15:38.439Z,22.48
2023-08-07T15:17:40.225Z,22.49
2023-08-07T15:19:41.904Z,22.49
2023-08-07T15:21:43.971Z,22.45
2023-08-07T15:23:46.072Z,22.41
2023-08-07T15:25:48.884Z,22.35
2023-08-07T15:27:50.648Z,22.32
2023-08-07T15:29:54.231Z,22.28
2023-08-07T15:31:56.175Z,22.19
2023-08-07T15:33:59.452Z,22.14
2023-08-07T15:36:01.245Z,22.14
2023-08-07T15:38:02.928Z,22.11
2023-08-07T15:40:05.120Z,22.11
2023-08-07T15:42:07.275Z,22.10
2023-08-07T15:44:10.186Z,22.13
2023-08-07T15:46:11.994Z,22.12
2023-08-07T15:48:14.123Z,22.09
2023-08-07T15:50:16.209Z,22.07
2023-08-07T15:52:19.556Z,22.05
2023-08-07T15:54:23.830Z,21.98
2023-08-07T15:56:25.725Z,22.00
2023-08-07T15:58:28.135Z,21.97
2023-08-07T16:00:31.353Z,21.94
2023-08-07T16:02:33.157Z,21.93
2023-08-07T16:04:38.249Z,21.88
2023-08-07T16:06:40.373Z,21.84
2023-08-07T16:08:42.041Z,21.79
2023-08-07T16:10:43.876Z,21.74
2023-08-07T16:12:45.823Z,21.73
2023-08-07T16:14:49.496Z,21.75
2023-08-07T16:16:53.167Z,21.77
2023-08-07T16:18:55.133Z,21.74
2023-08-07T16:20:57.730Z,21.70
2023-08-07T16:22:59.408Z,21.68
2023-08-07T16:25:01.766Z,21.68
2023-08-07T16:27:03.996Z,21.61
2023-08-07T16:29:05.916Z,21.68
2023-08-07T16:31:07.667Z,21.69
2023-08-07T16:33:10.882Z,21.67
2023-08-07T16:35:14.285Z,21.65
2023-08-07T16:37:17.672Z,21.66
2023-08-07T16:39:19.369Z,21.60
2023-08-07T16:41:21.782Z,21.63
2023-08-07T16:43:23.488Z,21.65
2023-08-07T16:45:26.370Z,21.64
2023-08-07T16:47:29.152Z,21.57
2023-08-07T16:49:30.882Z,21.52
2023-08-07T16:51:35.685Z,21.47
2023-08-07T16:53:37.414Z,21.43
2023-08-07T16:55:39.051Z,21.35
2023-08-07T16:57:40.782Z,21.27
2023-08-07T16:59:42.544Z,21.21
2023-08-07T17:01:45.285Z,21.15
2023-08-07T17:03:47.634Z,21.15
2023-08-07T17:05:49.838Z,21.14
2023-08-07T17:07:51.497Z,21.13
2023-08-07T17:09:53.686Z,21.08
2023-08-07T17:11:55.551Z,21.03
2023-08-07T17:13:59.397Z,20.98
2023-08-07T17:16:01.238Z,20.91
2023-08-07T17:18:04.282Z,20.86
2023-08-07T17:20:07.140Z,20.82
2023-08-07T17:22:09.178Z,20.82
2023-08-07T17:24:11.104Z,20.79
2023-08-07T17:26:12.738Z,20.78
2023-08-07T17:28:14.447Z,20.78
2023-08-07T17:30:16.100Z,20.81
2023-08-07T17:32:17.806Z,20.84
2023-08-07T17:34:20.738Z,20.86
2023-08-07T17:36:22.900Z,20.84
2023-08-07T17:38:24.819Z,20.85
2023-08-07T17:40:26.813Z,20.84
2023-08-07T17:42:28.600Z,20.81
2023-08-07T17:44:30.309Z,20.78
2023-08-07T17:46:34.063Z,20.77
2023-08-07T17:48:36.059Z,20.74
2023-08-07T17:50:38.540Z,20.70
2023-08-07T17:52:40.610Z,20.66
2023-08-07T17:54:42.384Z,20.67
2023-08-07T17:56:44.250Z,20.68
2023-08-07T17:58:48.264Z,20.67
2023-08-07T18:00:50.347Z,20.55
2023-08-07T18:02:52.320Z,20.58
2023-08-07T18:04:54.085Z,20.59
2023-08-07T18:06:56.441Z,20.62
2023-08-07T18:08:59.025Z,20.62
2023-08-07T18:11:00.963Z,20.61
2023-08-07T18:13:02.877Z,20.63
2023-08-07T18:15:06.055Z,20.64
2023-08-07T18:17:10.669Z,20.61
2023-08-07T18:19:14.367Z,20.63
2023-08-07T18:21:17.047Z,20.62
2023-08-07T18:23:21.284Z,20.58
2023-08-07T18:25:23.124Z,20.63
2023-08-07T18:27:26.224Z,20.64
2023-08-07T18:29:28.235Z,20.70
2023-08-07T18:31:33.191Z,20.73
2023-08-07T18:33:34.921Z,20.73
2023-08-07T18:35:36.864Z,20.75
2023-08-07T18:37:38.770Z,20.71
2023-08-07T18:39:42.704Z,20.71
2023-08-07T18:41:45.052Z,20.72
2023-08-07T18:43:49.140Z,20.68
2023-08-07T18:45:50.907Z,20.68
2023-08-07T18:47:53.846Z,20.65
2023-08-07T18:49:55.571Z,20.63
2023-08-07T18:51:57.232Z,20.54
2023-08-07T18:53:59.109Z,20.59
2023-08-07T18:56:01.190Z,20.56
2023-08-07T18:58:03.068Z,20.58
2023-08-07T19:00:07.280Z,20.60
2023-08-07T19:02:09.048Z,20.57
2023-08-07T19:04:11.465Z,20.56
2023-08-07T19:06:13.703Z,20.57
2023-08-07T19:08:15.442Z,20.59
2023-08-07T19:10:17.387Z,20.56
2023-08-07T19:12:19.282Z,20.53
2023-08-07T19:14:23.338Z,20.49
2023-08-07T19:16:25.393Z,20.39
2023-08-07T19:18:27.555Z,20.33
2023-08-07T19:20:29.234Z,20.29
2023-08-07T19:22:31.744Z,20.24
2023-08-07T19:24:33.702Z,20.17
2023-08-07T19:26:35.613Z,20.09
2023-08-07T19:28:37.351Z,20.10
2023-08-07T19:30:40.699Z,20.07
2023-08-07T19:32:49.331Z,20.03
2023-08-07T19:34:51.105Z,20.01
2023-08-07T19:36:52.836Z,20.02
2023-08-07T19:38:55.104Z,20.01
2023-08-07T19:40:58.311Z,20.02
2023-08-07T19:43:00.185Z,20.02
2023-08-07T19:45:02.250Z,20.01
2023-08-07T19:47:04.430Z,19.97
2023-08-07T19:49:06.056Z,19.95
2023-08-07T19:51:07.714Z,19.92
2023-08-07T19:53:10.104Z,19.87
2023-08-07T19:55:12.252Z,19.89
2023-08-07T19:57:14.224Z,19.87
2023-08-07T19:59:16.105Z,19.89
2023-08-07T20:01:19.000Z,19.90
2023-08-07T20:03:20.779Z,19.88
2023-08-07T20:05:22.966Z,19.90
2023-08-07T20:07:24.866Z,19.87
2023-08-07T20:09:26.778Z,19.83
2023-08-07T20:11:29.249Z,19.81
2023-08-07T20:13:31.116Z,19.82
2023-08-07T20:15:32.951Z,19.82
2023-08-07T20:17:34.691Z,19.80
2023-08-07T20:19:36.500Z,19.78
2023-08-07T20:21:38.758Z,19.77
2023-08-07T20:23:40.487Z,19.77
2023-08-07T20:25:42.965Z,19.76
2023-08-07T20:27:47.158Z,19.75
2023-08-07T20:29:48.833Z,19.71
2023-08-07T20:31:50.814Z,19.70
2023-08-07T20:33:52.549Z,19.70
2023-08-07T20:35:54.279Z,19.66
2023-08-07T20:37:56.640Z,19.66
2023-08-07T20:40:00.411Z,19.68
2023-08-07T20:42:02.103Z,19.64
2023-08-07T20:44:05.829Z,19.60
2023-08-07T20:46:07.554Z,19.55
2023-08-07T20:48:09.434Z,19.47
2023-08-07T20:50:11.897Z,19.50
2023-08-07T20:52:13.754Z,19.56
2023-08-07T20:54:15.442Z,19.61
2023-08-07T20:56:17.379Z,19.72
2023-08-07T20:58:19.014Z,19.79
2023-08-07T21:00:20.816Z,19.88
2023-08-07T21:02:24.705Z,19.98
2023-08-07T21:04:27.152Z,20.07
2023-08-07T21:06:29.514Z,20.10
2023-08-07T21:08:31.149Z,20.10
2023-08-07T21:10:33.347Z,20.06
2023-08-07T21:12:37.063Z,20.08
2023-08-07T21:14:38.774Z,20.17
2023-08-07T21:16:44.945Z,20.32
2023-08-07T21:18:46.758Z,20.46
2023-08-07T21:20:48.574Z,20.47
2023-08-07T21:22:50.417Z,20.42
2023-08-07T21:24:52.189Z,20.34
2023-08-07T21:26:54.039Z,20.29
2023-08-07T21:28:55.644Z,20.26
2023-08-07T21:30:57.432Z,20.22
2023-08-07T21:32:59.273Z,20.22
2023-08-07T21:35:01.053Z,20.23
2023-08-07T21:37:02.694Z,20.19
2023-08-07T21:39:04.390Z,20.14
2023-08-07T21:41:06.200Z,20.18
2023-08-07T21:43:08.569Z,20.30
2023-08-07T21:45:13.288Z,20.39
2023-08-07T21:47:14.830Z,20.40
2023-08-07T21:49:16.520Z,20.41
2023-08-07T21:51:18.238Z,20.36
2023-08-07T21:53:20.008Z,20.34
2023-08-07T21:55:21.860Z,20.39
2023-08-07T21:57:23.759Z,20.38
2023-08-07T21:59:25.910Z,20.35
2023-08-07T22:01:27.576Z,20.30
2023-08-07T22:03:29.453Z,20.21
2023-08-07T22:05:31.265Z,20.11
2023-08-07T22:07:33.089Z,20.06
2023-08-07T22:09:35.109Z,20.15
2023-08-07T22:11:37.327Z,20.17
2023-08-07T22:13:39.380Z,20.15
2023-08-07T22:15:41.021Z,20.13
2023-08-07T22:17:42.876Z,20.09
2023-08-07T22:19:59.075Z,20.08
2023-08-07T22:22:06.356Z,20.12
2023-08-07T22:24:09.241Z,20.14
2023-08-07T22:26:11.078Z,20.07
2023-08-07T22:28:12.870Z,20.02
2023-08-07T22:30:16.013Z,19.92
2023-08-07T22:32:17.815Z,19.88
2023-08-07T22:34:21.132Z,19.89
2023-08-07T22:36:23.011Z,19.92
2023-08-07T22:38:24.641Z,19.97
2023-08-07T22:40:26.325Z,20.08
2023-08-07T22:42:28.009Z,20.19
2023-08-07T22:44:30.263Z,20.24
2023-08-07T22:46:32.241Z,20.28
2023-08-07T22:48:33.919Z,20.35
2023-08-07T22:50:35.900Z,20.41
2023-08-07T22:52:40.180Z,20.34
2023-08-07T22:54:42.008Z,20.21
2023-08-07T22:56:43.770Z,20.11
2023-08-07T22:58:45.423Z,20.05
2023-08-07T23:00:47.274Z,19.92
2023-08-07T23:05:10.990Z,19.55
2023-08-07T23:07:12.664Z,19.43
2023-08-07T23:09:14.325Z,19.27
2023-08-07T23:11:15.983Z,19.31
2023-08-07T23:13:17.658Z,19.47
2023-08-07T23:15:20.851Z,19.72
2023-08-07T23:17:22.546Z,19.93
2023-08-07T23:19:24.264Z,20.01
2023-08-07T23:21:26.003Z,19.97
2023-08-07T23:23:27.729Z,19.92
2023-08-07T23:25:29.352Z,19.82
2023-08-07T23:27:31.583Z,19.64
2023-08-07T23:29:34.132Z,19.50
2023-08-07T23:31:36.553Z,19.43
2023-08-07T23:33:38.369Z,19.43
2023-08-07T23:35:40.135Z,19.45
2023-08-07T23:37:41.826Z,19.42
2023-08-07T23:39:43.565Z,19.44
2023-08-07T23:41:45.285Z,19.55
2023-08-07T23:43:46.949Z,19.66
2023-08-07T23:45:48.641Z,19.85
2023-08-07T23:47:50.423Z,19.94
2023-08-07T23:49:52.139Z,19.96
2023-08-07T23:51:53.821Z,19.98
2023-08-07T23:53:55.509Z,20.00
2023-08-07T23:55:57.149Z,20.05
2023-08-07T23:57:58.847Z,20.12
